createdAt,value
2022-08-05T00:01:36.453Z,33.35
2022-08-05T00:04:17.538Z,33.00
2022-08-05T00:06:45.169Z,33.19
2022-08-05T00:09:16.025Z,33.20
2022-08-05T00:11:49.125Z,33.39
2022-08-05T00:14:17.579Z,33.28
2022-08-05T00:16:53.270Z,33.32
2022-08-05T00:19:23.342Z,33.71
2022-08-05T00:21:52.422Z,33.73
2022-08-05T00:24:24.197Z,33.65
2022-08-05T00:26:52.870Z,33.47
2022-08-05T00:29:22.583Z,33.94
2022-08-05T00:32:13.012Z,33.64
2022-08-05T00:35:03.593Z,33.72
2022-08-05T00:37:50.856Z,33.48
2022-08-05T00:40:17.819Z,33.66
2022-08-05T00:42:55.546Z,33.62
2022-08-05T00:45:28.265Z,33.55
2022-08-05T00:48:07.383Z,33.48
2022-08-05T00:50:36.368Z,33.68
2022-08-05T00:53:03.785Z,33.56
2022-08-05T00:55:42.896Z,33.42
2022-08-05T00:58:11.955Z,33.68
2022-08-05T01:00:40.363Z,33.61
2022-08-05T01:03:09.893Z,33.76
2022-08-05T01:05:41.409Z,34.01
2022-08-05T01:08:30.647Z,33.85
2022-08-05T01:10:59.722Z,33.97
2022-08-05T01:13:58.861Z,33.84
2022-08-05T01:16:26.926Z,33.96
2022-08-05T01:18:57.923Z,34.08
2022-08-05T01:22:00.616Z,34.08
2022-08-05T01:24:54.908Z,34.02
2022-08-05T01:27:33.084Z,34.31
2022-08-05T01:30:04.394Z,33.95
2022-08-05T01:32:34.927Z,33.89
2022-08-05T01:35:10.665Z,34.13
2022-08-05T01:37:44.332Z,34.04
2022-08-05T01:40:12.740Z,33.87
2022-08-05T01:42:42.599Z,34.26
2022-08-05T01:45:14.625Z,34.05
2022-08-05T01:47:44.490Z,34.23
2022-08-05T01:50:18.700Z,34.07
2022-08-05T01:52:59.981Z,34.21
2022-08-05T01:55:29.618Z,34.47
2022-08-05T01:58:12.155Z,34.13
2022-08-05T02:00:48.859Z,34.59
2022-08-05T02:03:28.993Z,34.54
2022-08-05T02:06:00.981Z,34.41
2022-08-05T02:08:31.606Z,34.27
2022-08-05T02:11:05.105Z,34.46
2022-08-05T02:13:53.273Z,34.53
2022-08-05T02:16:25.243Z,34.24
2022-08-05T02:18:58.563Z,34.44
2022-08-05T02:21:30.506Z,34.20
2022-08-05T02:24:17.962Z,34.49
2022-08-05T02:26:54.553Z,34.27
2022-08-05T02:29:58.143Z,34.32
2022-08-05T02:32:23.765Z,34.29
2022-08-05T02:34:54.997Z,34.54
2022-08-05T02:37:23.934Z,34.31
2022-08-05T02:39:53.550Z,34.33
2022-08-05T02:42:27.666Z,34.30
2022-08-05T02:45:00.121Z,34.53
2022-08-05T02:48:06.260Z,34.22
2022-08-05T02:50:20.629Z,33.55
2022-08-05T02:52:49.189Z,34.08
2022-08-05T02:55:51.935Z,35.48
2022-08-05T02:58:11.989Z,35.85
2022-08-05T03:00:48.163Z,36.42
2022-08-05T03:03:19.812Z,36.31
2022-08-05T03:06:53.820Z,36.25
2022-08-05T03:08:42.714Z,36.19
2022-08-05T03:11:57.367Z,35.96
2022-08-05T03:14:08.239Z,35.69
2022-08-05T03:16:35.923Z,35.34
2022-08-05T03:19:12.575Z,35.06
2022-08-05T03:21:48.826Z,35.02
2022-08-05T03:24:18.552Z,35.13
2022-08-05T03:26:57.067Z,35.00
2022-08-05T03:29:24.713Z,34.77
2022-08-05T03:32:12.099Z,34.86
2022-08-05T03:34:49.587Z,34.94
2022-08-05T03:37:19.952Z,34.95
2022-08-05T03:39:59.326Z,35.23
2022-08-05T03:42:32.263Z,35.07
2022-08-05T03:45:01.552Z,35.33
2022-08-05T03:47:35.351Z,35.33
2022-08-05T03:50:04.768Z,35.03
2022-08-05T03:55:06.779Z,35.07
2022-08-05T03:56:01.637Z,35.26
2022-08-05T03:58:29.111Z,34.95
2022-08-05T04:01:00.031Z,34.91
2022-08-05T04:03:29.230Z,35.00
2022-08-05T04:05:59.219Z,35.01
2022-08-05T04:08:34.689Z,34.63
2022-08-05T04:11:04.745Z,35.03
2022-08-05T04:13:49.813Z,34.81
2022-08-05T04:16:25.508Z,34.60
2022-08-05T04:19:00.042Z,34.61
2022-08-05T04:22:10.401Z,34.79
2022-08-05T04:24:19.107Z,35.01
2022-08-05T04:26:46.989Z,34.77
2022-08-05T04:29:14.284Z,35.25
2022-08-05T04:31:41.564Z,35.38
2022-08-05T04:34:31.668Z,35.49
2022-08-05T04:36:58.704Z,35.54
2022-08-05T04:39:27.571Z,35.26
2022-08-05T04:41:55.435Z,35.43
2022-08-05T04:44:29.455Z,35.46
2022-08-05T04:46:58.367Z,35.51
2022-08-05T04:50:02.133Z,35.30
2022-08-05T04:52:14.577Z,35.71
2022-08-05T04:54:42.313Z,35.69
2022-08-05T04:57:09.497Z,35.69
2022-08-05T04:59:38.788Z,36.17
2022-08-05T05:02:36.432Z,36.16
2022-08-05T05:05:02.202Z,36.00
2022-08-05T05:07:35.357Z,36.07
2022-08-05T05:10:03.359Z,36.54
2022-08-05T05:12:30.501Z,36.84
2022-08-05T05:14:57.684Z,37.22
2022-08-05T05:17:56.949Z,37.62
2022-08-05T05:20:13.366Z,38.15
2022-08-05T05:22:44.180Z,38.78
2022-08-05T05:25:16.854Z,38.51
2022-08-05T05:27:53.677Z,38.85
2022-08-05T05:30:29.624Z,38.37
2022-08-05T05:33:03.526Z,37.70
2022-08-05T05:35:38.120Z,38.71
2022-08-05T05:38:12.869Z,38.92
2022-08-05T05:40:49.511Z,38.87
2022-08-05T05:43:22.315Z,39.03
2022-08-05T05:46:09.508Z,39.00
2022-08-05T05:48:41.218Z,38.31
2022-08-05T05:51:15.596Z,38.46
2022-08-05T05:53:46.118Z,39.27
2022-08-05T05:56:32.917Z,39.11
2022-08-05T05:59:05.198Z,39.01
2022-08-05T06:01:37.417Z,39.37
2022-08-05T06:04:07.636Z,38.42
2022-08-05T06:06:35.661Z,38.67
2022-08-05T06:09:05.590Z,39.83
2022-08-05T06:11:35.396Z,40.04
2022-08-05T06:14:06.739Z,40.16
2022-08-05T06:16:37.139Z,39.08
2022-08-05T06:19:07.596Z,38.40
2022-08-05T06:21:37.533Z,40.56
2022-08-05T06:24:12.004Z,40.39
2022-08-05T06:26:40.214Z,40.85
2022-08-05T06:29:43.216Z,40.50
2022-08-05T06:32:26.263Z,40.33
2022-08-05T06:34:56.292Z,39.96
2022-08-05T06:37:39.384Z,40.08
2022-08-05T06:40:21.065Z,39.39
2022-08-05T06:42:52.370Z,38.34
2022-08-05T06:46:02.899Z,38.17
2022-08-05T06:48:36.626Z,38.01
2022-08-05T06:50:56.303Z,38.39
2022-08-05T06:53:27.814Z,38.96
2022-08-05T06:55:57.480Z,38.77
2022-08-05T06:58:35.113Z,39.06
2022-08-05T07:01:05.527Z,38.92
2022-08-05T07:03:33.638Z,38.68
2022-08-05T07:06:05.886Z,40.32
2022-08-05T07:08:41.912Z,40.72
2022-08-05T07:11:15.250Z,39.36
2022-08-05T07:13:58.734Z,40.38
2022-08-05T07:17:56.451Z,40.53
2022-08-05T07:19:16.066Z,39.88
2022-08-05T07:22:02.631Z,39.49
2022-08-05T07:24:30.033Z,41.09
2022-08-05T07:26:58.595Z,41.46
2022-08-05T07:30:25.575Z,41.00
2022-08-05T07:32:14.621Z,39.83
2022-08-05T07:34:42.570Z,38.88
2022-08-05T07:40:26.785Z,38.56
2022-08-05T07:49:25.274Z,38.59
2022-08-05T07:51:55.183Z,38.09
2022-08-05T07:54:26.605Z,38.11
2022-08-05T07:57:13.758Z,37.87
2022-08-05T07:59:46.979Z,38.42
2022-08-05T08:02:17.621Z,38.01
2022-08-05T08:15:15.456Z,37.79
2022-08-05T08:17:49.867Z,38.00
2022-08-05T08:20:43.507Z,37.67
2022-08-05T08:23:11.654Z,37.77
2022-08-05T08:26:00.163Z,37.88
2022-08-05T08:28:36.510Z,37.53
2022-08-05T08:31:16.457Z,37.67
2022-08-05T08:33:45.711Z,37.75
2022-08-05T08:36:38.197Z,37.94
2022-08-05T08:39:01.673Z,37.93
2022-08-05T08:41:50.668Z,37.69
2022-08-05T08:45:16.308Z,38.28
2022-08-05T08:47:47.590Z,38.63
2022-08-05T08:50:07.600Z,38.19
2022-08-05T08:52:53.647Z,38.55
2022-08-05T08:56:02.077Z,38.56
2022-08-05T08:58:10.070Z,38.84
2022-08-05T09:00:41.223Z,38.81
2022-08-05T09:03:10.632Z,38.73
2022-08-05T09:05:38.719Z,38.34
2022-08-05T09:08:26.625Z,38.57
2022-08-05T09:10:54.828Z,38.42
2022-08-05T09:13:23.473Z,38.30
2022-08-05T09:15:51.060Z,38.07
2022-08-05T09:18:19.834Z,38.38
2022-08-05T09:20:46.994Z,38.27
2022-08-05T09:23:18.754Z,38.05
2022-08-05T09:26:01.558Z,38.32
2022-08-05T09:28:33.827Z,38.05
2022-08-05T09:31:23.193Z,38.19
2022-08-05T09:33:55.176Z,38.11
2022-08-05T09:36:27.372Z,38.58
2022-08-05T09:39:00.105Z,38.29
2022-08-05T09:41:32.913Z,38.44
2022-08-05T09:44:05.362Z,38.09
2022-08-05T09:46:35.035Z,38.50
2022-08-05T09:49:06.798Z,38.41
2022-08-05T09:51:36.586Z,38.07
2022-08-05T09:54:05.063Z,38.43
2022-08-05T09:56:33.877Z,38.41
2022-08-05T09:59:03.211Z,38.35
2022-08-05T10:01:33.046Z,38.26
2022-08-05T10:04:02.023Z,38.10
2022-08-05T10:06:32.880Z,37.76
2022-08-05T10:09:25.063Z,37.83
2022-08-05T10:12:30.833Z,37.89
2022-08-05T10:14:54.470Z,37.52
2022-08-05T10:17:37.935Z,37.66
2022-08-05T10:20:10.067Z,37.85
2022-08-05T10:22:42.963Z,37.71
2022-08-05T10:25:19.577Z,38.05
2022-08-05T10:28:13.681Z,38.01
2022-08-05T10:31:20.053Z,37.89
2022-08-05T10:33:28.847Z,37.67
2022-08-05T10:35:59.159Z,37.69
2022-08-05T10:38:33.097Z,37.85
2022-08-05T10:41:12.409Z,37.78
2022-08-05T10:43:50.210Z,37.73
2022-08-05T10:46:19.162Z,36.98
2022-08-05T10:48:59.752Z,36.78
2022-08-05T10:51:53.099Z,36.64
2022-08-05T10:54:47.252Z,36.14
2022-08-05T10:57:31.737Z,36.37
2022-08-05T11:00:18.609Z,36.10
2022-08-05T11:03:23.229Z,36.07
2022-08-05T11:06:16.055Z,36.08
2022-08-05T11:09:32.437Z,36.37
2022-08-05T11:12:41.229Z,37.13
2022-08-05T11:15:20.314Z,36.23
2022-08-05T11:17:58.827Z,36.20
2022-08-05T11:20:38.977Z,36.15
2022-08-05T11:23:33.430Z,36.05
2022-08-05T11:26:28.610Z,36.12
2022-08-05T11:29:11.573Z,36.22
2022-08-05T11:31:57.004Z,36.05
2022-08-05T11:34:39.419Z,36.05
2022-08-05T11:38:28.888Z,35.91
2022-08-05T11:40:00.465Z,35.99
2022-08-05T11:42:32.779Z,35.57
2022-08-05T11:45:14.364Z,35.78
2022-08-05T11:47:55.182Z,35.90
2022-08-05T11:50:22.681Z,35.73
2022-08-05T11:52:53.195Z,36.08
2022-08-05T11:55:32.031Z,35.86
2022-08-05T11:58:09.151Z,35.59
2022-08-05T12:00:39.105Z,35.92
2022-08-05T12:03:29.086Z,35.94
2022-08-05T12:06:05.902Z,36.12
2022-08-05T12:08:50.036Z,36.16
2022-08-05T12:11:21.061Z,36.24
2022-08-05T12:13:58.672Z,37.21
2022-08-05T12:16:28.937Z,38.18
2022-08-05T12:18:57.814Z,37.46
2022-08-05T12:21:29.832Z,37.15
2022-08-05T12:24:04.806Z,37.31
2022-08-05T12:26:35.338Z,36.98
2022-08-05T12:29:03.209Z,37.09
2022-08-05T12:31:33.499Z,37.03
2022-08-05T12:34:20.730Z,36.80
2022-08-05T12:36:50.676Z,36.49
2022-08-05T12:39:18.509Z,36.72
2022-08-05T12:41:46.103Z,36.65
2022-08-05T12:44:28.649Z,36.68
2022-08-05T12:47:02.243Z,36.90
2022-08-05T12:50:04.748Z,36.67
2022-08-05T12:52:33.941Z,35.51
2022-08-05T12:55:16.907Z,35.24
2022-08-05T12:58:48.950Z,34.66
2022-08-05T13:02:04.266Z,35.78
2022-08-05T13:03:18.448Z,35.53
2022-08-05T13:05:48.404Z,35.09
2022-08-05T13:08:18.632Z,35.44
2022-08-05T13:10:50.291Z,35.50
2022-08-05T13:14:05.862Z,35.31
2022-08-05T13:16:12.953Z,35.38
2022-08-05T13:18:51.151Z,35.25
2022-08-05T13:21:19.712Z,35.70
2022-08-05T13:23:50.854Z,35.55
2022-08-05T13:26:22.877Z,35.51
2022-08-05T13:28:57.483Z,35.95
2022-08-05T13:31:33.916Z,36.03
2022-08-05T13:34:25.529Z,35.75
2022-08-05T13:36:54.657Z,35.83
2022-08-05T13:40:13.099Z,35.96
2022-08-05T13:42:14.585Z,36.55
2022-08-05T13:44:45.519Z,36.55
2022-08-05T13:47:35.694Z,35.30
2022-08-05T13:50:04.423Z,34.74
2022-08-05T13:52:35.629Z,35.92
2022-08-05T13:55:07.763Z,34.54
2022-08-05T13:57:51.331Z,34.39
2022-08-05T14:00:27.241Z,33.89
2022-08-05T14:02:56.046Z,33.38
2022-08-05T14:05:29.479Z,33.51
2022-08-05T14:08:21.283Z,33.21
2022-08-05T14:11:03.157Z,32.89
2022-08-05T14:13:42.580Z,32.70
2022-08-05T14:16:11.259Z,32.77
2022-08-05T14:18:38.924Z,32.56
2022-08-05T14:22:07.505Z,32.44
2022-08-05T14:23:54.780Z,32.31
2022-08-05T14:26:38.531Z,32.24
2022-08-05T14:29:16.300Z,32.39
2022-08-05T14:32:02.883Z,32.76
2022-08-05T14:34:35.081Z,33.00
2022-08-05T14:37:03.547Z,32.99
2022-08-05T14:39:49.793Z,32.98
2022-08-05T14:42:21.725Z,33.11
2022-08-05T14:44:49.239Z,33.21
2022-08-05T14:47:16.427Z,32.99
2022-08-05T14:50:18.311Z,32.95
2022-08-05T14:52:57.767Z,37.58
2022-08-05T14:55:38.400Z,34.40
2022-08-05T14:58:10.628Z,33.48
2022-08-05T15:00:39.454Z,33.67
2022-08-05T15:03:26.301Z,34.01
2022-08-05T15:06:07.877Z,35.12
2022-08-05T15:08:58.483Z,34.27
2022-08-05T15:11:52.365Z,33.94
2022-08-05T15:14:33.548Z,34.20
2022-08-05T15:17:04.180Z,34.20
2022-08-05T15:19:31.968Z,34.10
2022-08-05T15:21:59.974Z,34.38
2022-08-05T15:24:27.431Z,34.01
2022-08-05T15:26:57.033Z,34.22
2022-08-05T15:29:29.725Z,34.15
2022-08-05T15:32:03.291Z,34.50
2022-08-05T15:34:33.546Z,34.54
2022-08-05T15:37:05.087Z,34.40
2022-08-05T15:41:04.618Z,34.85
2022-08-05T15:42:53.631Z,34.74
2022-08-05T15:45:10.001Z,34.74
2022-08-05T15:47:37.381Z,35.05
2022-08-05T15:50:07.501Z,35.10
2022-08-05T15:52:53.542Z,34.81
2022-08-05T15:55:24.460Z,34.63
2022-08-05T15:57:53.739Z,34.95
2022-08-05T16:00:26.237Z,35.91
2022-08-05T16:03:10.418Z,39.52
2022-08-05T16:05:39.012Z,35.93
2022-08-05T16:08:06.331Z,35.62
2022-08-05T16:10:33.483Z,36.41
2022-08-05T16:13:02.004Z,36.60
2022-08-05T16:15:32.714Z,36.68
2022-08-05T16:18:01.197Z,37.57
2022-08-05T16:20:31.573Z,37.51
2022-08-05T16:22:59.684Z,37.70
2022-08-05T16:25:32.284Z,37.52
2022-08-05T16:28:06.104Z,37.63
2022-08-05T16:30:34.144Z,37.64
2022-08-05T16:33:01.645Z,37.61
2022-08-05T16:35:32.046Z,37.46
2022-08-05T16:38:02.756Z,37.18
2022-08-05T16:40:51.655Z,37.15
2022-08-05T16:43:24.144Z,37.74
2022-08-05T16:46:04.125Z,37.38
2022-08-05T16:48:36.993Z,37.34
2022-08-05T16:51:09.709Z,37.27
2022-08-05T16:54:03.914Z,37.17
2022-08-05T16:56:26.445Z,36.81
2022-08-05T16:58:56.029Z,36.95
2022-08-05T17:01:24.632Z,36.83
2022-08-05T17:03:52.159Z,36.94
2022-08-05T17:06:19.497Z,37.05
2022-08-05T17:08:53.611Z,37.26
2022-08-05T17:11:23.871Z,37.16
2022-08-05T17:14:00.476Z,38.16
2022-08-05T17:16:36.742Z,37.47
2022-08-05T17:19:07.750Z,36.15
2022-08-05T17:21:39.392Z,34.96
2022-08-05T17:24:28.307Z,34.24
2022-08-05T17:26:55.745Z,33.83
2022-08-05T17:29:33.111Z,33.27
2022-08-05T17:32:11.851Z,33.30
2022-08-05T17:34:44.922Z,32.64
2022-08-05T17:37:39.288Z,33.22
2022-08-05T17:40:02.901Z,32.27
2022-08-05T17:42:32.293Z,32.12
2022-08-05T17:45:00.558Z,32.10
2022-08-05T17:47:39.122Z,32.31
2022-08-05T17:50:10.972Z,32.46
2022-08-05T17:52:53.344Z,32.28
2022-08-05T17:55:22.580Z,32.08
2022-08-05T17:57:54.704Z,31.85
2022-08-05T18:00:21.861Z,31.92
2022-08-05T18:02:58.142Z,31.54
2022-08-05T18:05:28.111Z,31.16
2022-08-05T18:08:02.345Z,31.42
2022-08-05T18:10:33.558Z,31.89
2022-08-05T18:13:01.972Z,31.73
2022-08-05T18:15:35.009Z,31.82
2022-08-05T18:18:10.912Z,39.89
2022-08-05T18:20:38.727Z,38.18
2022-08-05T18:23:11.230Z,35.83
2022-08-05T18:25:39.592Z,32.84
2022-08-05T18:28:12.540Z,32.56
2022-08-05T18:30:44.121Z,32.22
2022-08-05T18:33:13.456Z,31.96
2022-08-05T18:36:01.333Z,32.02
2022-08-05T18:38:29.133Z,31.91
2022-08-05T18:41:56.412Z,31.94
2022-08-05T18:43:49.155Z,31.60
2022-08-05T18:46:20.211Z,31.94
2022-08-05T18:48:52.042Z,31.52
2022-08-05T18:52:04.881Z,31.75
2022-08-05T18:54:07.510Z,31.70
2022-08-05T18:56:36.119Z,31.15
2022-08-05T18:59:42.029Z,31.66
2022-08-05T19:01:57.075Z,31.40
2022-08-05T19:04:27.106Z,31.08
2022-08-05T19:06:54.273Z,31.41
2022-08-05T19:09:21.715Z,31.17
2022-08-05T19:12:00.362Z,31.19
2022-08-05T19:14:59.466Z,31.16
2022-08-05T19:17:16.612Z,31.42
2022-08-05T19:19:48.454Z,31.22
2022-08-05T19:22:22.767Z,30.90
2022-08-05T19:24:56.379Z,31.04
2022-08-05T19:27:24.546Z,31.04
2022-08-05T19:29:57.442Z,31.11
2022-08-05T19:32:26.109Z,32.32
2022-08-05T19:34:56.600Z,32.05
2022-08-05T19:37:30.034Z,32.16
2022-08-05T19:40:12.932Z,32.40
2022-08-05T19:42:42.282Z,32.57
2022-08-05T19:45:28.332Z,32.34
2022-08-05T19:48:00.400Z,32.79
2022-08-05T19:50:28.870Z,32.54
2022-08-05T19:52:56.971Z,32.95
2022-08-05T19:56:14.237Z,32.91
2022-08-05T19:58:29.484Z,33.07
2022-08-05T20:00:57.788Z,33.36
2022-08-05T20:03:25.378Z,33.20
2022-08-05T20:05:54.801Z,33.33
2022-08-05T20:08:24.459Z,33.21
2022-08-05T20:10:52.231Z,33.31
2022-08-05T20:13:30.228Z,33.17
2022-08-05T20:16:06.990Z,33.37
2022-08-05T20:18:36.133Z,33.55
2022-08-05T20:21:06.722Z,33.89
2022-08-05T20:23:40.122Z,33.77
2022-08-05T20:26:18.674Z,33.95
2022-08-05T20:28:46.988Z,34.15
2022-08-05T20:31:14.309Z,33.83
2022-08-05T20:33:44.913Z,33.93
2022-08-05T20:36:14.266Z,34.27
2022-08-05T20:38:54.563Z,34.12
2022-08-05T20:41:27.335Z,34.01
2022-08-05T20:44:17.222Z,33.99
2022-08-05T20:46:47.036Z,34.03
2022-08-05T20:49:14.598Z,34.06
2022-08-05T20:51:47.028Z,34.17
2022-08-05T20:54:21.153Z,34.04
2022-08-05T20:56:48.964Z,33.95
2022-08-05T20:59:19.313Z,34.40
2022-08-05T21:01:54.529Z,34.15
2022-08-05T21:04:27.051Z,34.50
2022-08-05T21:06:55.974Z,34.46
2022-08-05T21:09:23.300Z,34.43
2022-08-05T21:12:07.703Z,34.92
2022-08-05T21:14:37.811Z,34.79
2022-08-05T21:17:05.936Z,35.05
2022-08-05T21:19:47.502Z,35.61
2022-08-05T21:22:18.687Z,34.76
2022-08-05T21:24:52.045Z,35.19
2022-08-05T21:27:20.549Z,35.00
2022-08-05T21:29:52.037Z,34.78
2022-08-05T21:32:21.187Z,35.33
2022-08-05T21:35:06.726Z,35.03
2022-08-05T21:37:41.201Z,34.86
2022-08-05T21:40:13.195Z,35.18
2022-08-05T21:42:45.112Z,34.88
2022-08-05T21:45:12.984Z,34.99
2022-08-05T21:47:56.254Z,35.18
2022-08-05T21:50:25.249Z,34.77
2022-08-05T21:52:53.891Z,35.39
2022-08-05T21:56:00.822Z,35.24
2022-08-05T21:58:13.454Z,35.69
2022-08-05T22:00:40.785Z,35.80
2022-08-05T22:03:18.175Z,35.81
2022-08-05T22:06:05.487Z,35.74
2022-08-05T22:08:34.443Z,35.56
2022-08-05T22:11:01.626Z,35.75
2022-08-05T22:14:05.665Z,35.48
2022-08-05T22:16:42.116Z,35.47
2022-08-05T22:19:03.273Z,35.81
2022-08-05T22:21:43.516Z,35.42
2022-08-05T22:24:12.916Z,35.40
2022-08-05T22:26:40.636Z,35.59
2022-08-05T22:29:07.983Z,35.79
2022-08-05T22:31:44.327Z,35.81
2022-08-05T22:34:12.864Z,35.82
2022-08-05T22:36:48.193Z,35.51
2022-08-05T22:39:16.886Z,35.48
2022-08-05T22:42:11.717Z,35.78
2022-08-05T22:44:35.909Z,35.81
2022-08-05T22:47:04.989Z,35.91
2022-08-05T22:50:21.847Z,36.12
2022-08-05T22:52:30.319Z,36.08
2022-08-05T22:55:19.466Z,36.34
2022-08-05T22:57:49.130Z,36.09
2022-08-05T23:00:17.973Z,36.30
2022-08-05T23:02:48.464Z,36.23
2022-08-05T23:05:16.383Z,36.48
2022-08-05T23:07:45.344Z,36.24
2022-08-05T23:10:19.640Z,36.05
2022-08-05T23:12:51.158Z,36.11
2022-08-05T23:15:21.263Z,36.17
2022-08-05T23:18:00.903Z,36.19
2022-08-05T23:20:31.493Z,36.11
2022-08-05T23:22:59.909Z,36.32
2022-08-05T23:25:53.008Z,36.44
2022-08-05T23:28:17.249Z,36.06
2022-08-05T23:30:53.583Z,36.02
2022-08-05T23:33:26.459Z,36.34
2022-08-05T23:36:10.505Z,36.67
2022-08-05T23:38:37.871Z,36.68
2022-08-05T23:41:06.458Z,36.50
2022-08-05T23:44:04.797Z,36.58
2022-08-05T23:46:22.136Z,36.63
2022-08-05T23:49:00.608Z,36.90
2022-08-05T23:51:31.045Z,36.79
2022-08-05T23:54:01.542Z,36.54
2022-08-05T23:56:30.118Z,36.54
2022-08-05T23:58:58.712Z,36.76
